Time;durP1;ratioP1;P1;durP2;ratioP2;P2;SDS_P1;SDS_P2;PMS_P1;PMS_P2;Temp;Humidity;BMP_temperature;BMP_pressure;BME280_temperature;BME280_humidity;BME280_pressure;Samples;Min_cycle;Max_cycle;Signal;HPM_P1;HPM_P2
2021/12/19 00:09:29;;;;;;;8.50;7.62;;;;;;;;;;1806901;78;20926;-60
2021/12/19 00:11:56;;;;;;;9.53;7.65;;;;;;;;;;1808498;78;22012;-60
2021/12/19 00:14:24;;;;;;;8.65;6.87;;;;;;;;;;1813701;78;21525;-60
2021/12/19 00:16:52;;;;;;;9.65;7.92;;;;;;;;;;1807161;78;21128;-60
2021/12/19 00:19:18;;;;;;;10.82;8.88;;;;;;;;;;1806433;78;20986;-60
2021/12/19 00:21:45;;;;;;;10.85;8.83;;;;;;;;;;1808907;78;21409;-60
2021/12/19 00:24:11;;;;;;;12.28;9.33;;;;;;;;;;1808818;78;21035;-60
2021/12/19 00:26:37;;;;;;;9.73;8.45;;;;;;;;;;1807519;78;20910;-60
2021/12/19 00:29:04;;;;;;;14.80;8.80;;;;;;;;;;1810492;78;22014;-60
2021/12/19 00:31:31;;;;;;;11.80;8.63;;;;;;;;;;1805901;78;21048;-60
2021/12/19 00:33:57;;;;;;;10.30;8.78;;;;;;;;;;1810550;78;20931;-59
2021/12/19 00:36:23;;;;;;;12.18;10.00;;;;;;;;;;1762908;80;21342;-60
2021/12/19 00:38:50;;;;;;;12.47;9.58;;;;;;;;;;1747834;81;21038;-60
2021/12/19 00:41:16;;;;;;;12.03;9.70;;;;;;;;;;1767627;80;21122;-60
2021/12/19 00:46:15;;;;;;;12.88;10.32;;;;;;;;;;1775758;80;20947;-60
2021/12/19 00:48:44;;;;;;;12.53;9.93;;;;;;;;;;1753203;81;21499;-59
2021/12/19 00:51:14;;;;;;;15.40;10.65;;;;;;;;;;1738543;81;20995;-63
2021/12/19 00:53:41;;;;;;;14.05;10.72;;;;;;;;;;1773849;80;21152;-59
2021/12/19 00:56:07;;;;;;;12.43;9.80;;;;;;;;;;1772316;80;20949;-59
2021/12/19 00:58:33;;;;;;;14.28;11.45;;;;;;;;;;1766538;80;21933;-60
2021/12/19 01:01:01;;;;;;;12.53;9.65;;;;;;;;;;1758830;80;21395;-59
2021/12/19 01:03:27;;;;;;;15.88;10.72;;;;;;;;;;1761256;80;21006;-59
2021/12/19 01:05:53;;;;;;;15.68;11.28;;;;;;;;;;1771875;80;22094;-59
2021/12/19 01:08:20;;;;;;;18.27;12.15;;;;;;;;;;1763984;80;20902;-59
2021/12/19 01:10:46;;;;;;;15.83;11.48;;;;;;;;;;1799863;78;20909;-59
2021/12/19 01:13:13;;;;;;;16.20;12.25;;;;;;;;;;1814495;78;21025;-59
2021/12/19 01:15:39;;;;;;;21.07;13.75;;;;;;;;;;1800901;78;20875;-59
2021/12/19 01:18:05;;;;;;;19.35;13.43;;;;;;;;;;1803326;78;21103;-60
2021/12/19 01:20:33;;;;;;;17.07;13.62;;;;;;;;;;1803860;78;21531;-59
2021/12/19 01:23:00;;;;;;;18.32;13.10;;;;;;;;;;1805512;78;20831;-59
2021/12/19 01:25:26;;;;;;;19.98;14.38;;;;;;;;;;1807028;78;20922;-60
2021/12/19 01:27:52;;;;;;;22.40;15.28;;;;;;;;;;1800441;78;20989;-59
2021/12/19 01:30:18;;;;;;;20.65;14.70;;;;;;;;;;1803018;78;21850;-59
2021/12/19 01:32:44;;;;;;;22.70;15.88;;;;;;;;;;1804639;78;20965;-60
2021/12/19 01:35:11;;;;;;;24.82;15.20;;;;;;;;;;1799680;78;21048;-60
2021/12/19 01:37:38;;;;;;;22.50;16.42;;;;;;;;;;1764760;80;20864;-59
2021/12/19 01:40:06;;;;;;;21.62;15.40;;;;;;;;;;1805212;78;21028;-59
2021/12/19 01:42:36;;;;;;;20.15;14.98;;;;;;;;;;1770191;80;21527;-59
2021/12/19 01:45:04;;;;;;;22.93;15.15;;;;;;;;;;1720797;82;21001;-59
2021/12/19 01:47:32;;;;;;;22.90;14.70;;;;;;;;;;1796580;78;21028;-59
2021/12/19 01:49:58;;;;;;;21.77;14.60;;;;;;;;;;1810964;78;21536;-59
2021/12/19 01:52:28;;;;;;;20.48;14.43;;;;;;;;;;1805250;78;21048;-60
2021/12/19 01:54:53;;;;;;;21.75;15.40;;;;;;;;;;1809944;78;21163;-59
2021/12/19 01:57:22;;;;;;;21.40;15.72;;;;;;;;;;1799972;78;20843;-59
2021/12/19 01:59:47;;;;;;;24.05;16.30;;;;;;;;;;1806767;78;20855;-59
2021/12/19 02:02:14;;;;;;;20.40;15.08;;;;;;;;;;1805356;78;20990;-59
2021/12/19 02:04:42;;;;;;;19.20;14.13;;;;;;;;;;1806794;78;21126;-59
2021/12/19 02:07:12;;;;;;;20.45;14.33;;;;;;;;;;1800185;78;21283;-59
2021/12/19 02:09:39;;;;;;;19.45;14.50;;;;;;;;;;1788119;79;20994;-59
2021/12/19 02:12:06;;;;;;;20.62;14.10;;;;;;;;;;1774262;79;20846;-59
2021/12/19 02:14:33;;;;;;;18.50;13.72;;;;;;;;;;1783966;79;21134;-59
2021/12/19 02:16:59;;;;;;;21.42;14.98;;;;;;;;;;1788158;79;21038;-59
2021/12/19 02:19:25;;;;;;;20.90;14.28;;;;;;;;;;1782841;79;21932;-59
2021/12/19 02:21:52;;;;;;;23.05;15.93;;;;;;;;;;1780735;79;21012;-60
2021/12/19 02:24:18;;;;;;;20.77;15.50;;;;;;;;;;1788345;79;21009;-59
2021/12/19 02:26:44;;;;;;;23.95;16.02;;;;;;;;;;1775106;79;21473;-59
2021/12/19 02:29:11;;;;;;;22.20;16.10;;;;;;;;;;1776523;79;21603;-59
2021/12/19 02:31:38;;;;;;;21.52;16.35;;;;;;;;;;1778298;79;21242;-59
2021/12/19 02:34:09;;;;;;;20.35;15.43;;;;;;;;;;1778482;79;20973;-59
2021/12/19 02:50:08;;;;;;;21.87;16.30;;;;;;;;;;1777378;79;20899;-59
2021/12/19 02:52:35;;;;;;;22.90;15.88;;;;;;;;;;1791414;79;20937;-59
2021/12/19 02:55:03;;;;;;;18.95;14.53;;;;;;;;;;1772476;79;21062;-59
2021/12/19 02:57:29;;;;;;;24.40;16.23;;;;;;;;;;1771485;79;21984;-59
2021/12/19 02:59:56;;;;;;;20.75;15.13;;;;;;;;;;1778146;79;21064;-59
2021/12/19 03:02:22;;;;;;;20.57;14.18;;;;;;;;;;1776105;79;20932;-59
2021/12/19 03:04:53;;;;;;;19.35;14.85;;;;;;;;;;1785818;79;21419;-59
2021/12/19 03:07:19;;;;;;;19.05;14.53;;;;;;;;;;1779737;79;20955;-59
2021/12/19 03:18:00;;;;;;;21.02;16.12;;;;;;;;;;1802107;78;21040;-59
2021/12/19 03:20:27;;;;;;;20.82;15.60;;;;;;;;;;1802939;78;21060;-58
2021/12/19 03:22:55;;;;;;;21.52;15.85;;;;;;;;;;1764082;80;21157;-58
2021/12/19 03:25:21;;;;;;;27.50;16.45;;;;;;;;;;1805990;78;20969;-59
2021/12/19 03:27:47;;;;;;;19.10;14.20;;;;;;;;;;1802194;78;20878;-58
2021/12/19 03:30:13;;;;;;;20.77;15.65;;;;;;;;;;1799871;78;20999;-58
2021/12/19 03:32:40;;;;;;;21.95;15.78;;;;;;;;;;1801871;78;20969;-59
2021/12/19 03:35:06;;;;;;;23.90;15.58;;;;;;;;;;1805695;78;21781;-59
2021/12/19 03:37:32;;;;;;;19.25;15.08;;;;;;;;;;1804122;78;20926;-59
2021/12/19 03:40:09;;;;;;;20.20;15.38;;;;;;;;;;1811428;78;21506;-60
2021/12/19 03:42:38;;;;;;;20.35;14.95;;;;;;;;;;1801214;78;21001;-60
2021/12/19 03:45:06;;;;;;;22.85;16.62;;;;;;;;;;1813459;78;20930;-59
2021/12/19 03:47:32;;;;;;;17.75;13.70;;;;;;;;;;1798214;78;21117;-59
2021/12/19 03:50:00;;;;;;;20.95;14.63;;;;;;;;;;1807820;78;21076;-59
2021/12/19 03:52:27;;;;;;;22.45;15.28;;;;;;;;;;1819092;78;20945;-60
2021/12/19 03:54:53;;;;;;;16.48;14.10;;;;;;;;;;1813896;78;21025;-59
2021/12/19 03:57:19;;;;;;;21.20;15.15;;;;;;;;;;1763347;80;20886;-59
2021/12/19 03:59:48;;;;;;;21.60;15.80;;;;;;;;;;1803802;78;21175;-59
2021/12/19 04:02:24;;;;;;;19.95;14.98;;;;;;;;;;1801243;78;20938;-59
2021/12/19 04:04:43;;;;;;;21.25;15.95;;;;;;;;;;1808127;78;21496;-58
2021/12/19 04:07:11;;;;;;;20.72;15.43;;;;;;;;;;1807324;78;20910;-59
2021/12/19 04:09:38;;;;;;;23.80;15.20;;;;;;;;;;1786729;79;21049;-59
2021/12/19 04:12:06;;;;;;;18.73;15.30;;;;;;;;;;1779250;79;21155;-59
2021/12/19 04:14:32;;;;;;;20.95;15.83;;;;;;;;;;1778789;79;20985;-59
2021/12/19 04:16:58;;;;;;;23.92;16.23;;;;;;;;;;1774471;79;20962;-60
2021/12/19 04:19:25;;;;;;;20.10;15.00;;;;;;;;;;1777549;79;20978;-59
2021/12/19 04:21:52;;;;;;;20.88;15.23;;;;;;;;;;1773796;80;20982;-59
2021/12/19 04:24:18;;;;;;;19.02;14.93;;;;;;;;;;1784313;79;21065;-59
2021/12/19 04:26:44;;;;;;;20.82;15.18;;;;;;;;;;1774622;79;20982;-60
2021/12/19 04:29:11;;;;;;;18.90;14.65;;;;;;;;;;1775482;80;20937;-60
2021/12/19 04:31:40;;;;;;;19.50;14.03;;;;;;;;;;1775304;80;21006;-58
2021/12/19 04:34:06;;;;;;;18.12;13.78;;;;;;;;;;1778631;79;20899;-59
2021/12/19 04:36:38;;;;;;;17.37;13.30;;;;;;;;;;1778578;79;21054;-59
2021/12/19 05:00:13;;;;;;;18.90;13.68;;;;;;;;;;1764315;80;20939;-60
2021/12/19 05:02:45;;;;;;;18.55;13.60;;;;;;;;;;1772525;79;20918;-59
2021/12/19 05:16:01;;;;;;;19.05;13.65;;;;;;;;;;1800254;78;21151;-59
2021/12/19 05:18:30;;;;;;;21.55;15.60;;;;;;;;;;1767191;80;20946;-59
2021/12/19 05:21:00;;;;;;;17.92;14.07;;;;;;;;;;1811288;78;20981;-59
2021/12/19 05:25:52;;;;;;;19.02;14.10;;;;;;;;;;1804529;78;20909;-58
2021/12/19 05:28:19;;;;;;;20.25;15.23;;;;;;;;;;1796259;78;21174;-58
2021/12/19 05:30:45;;;;;;;20.23;15.78;;;;;;;;;;1805497;78;20871;-58
2021/12/19 05:33:12;;;;;;;19.17;14.75;;;;;;;;;;1804985;78;20986;-59
2021/12/19 05:46:39;;;;;;;22.13;13.25;;;;;;;;;;1795743;78;20921;-59
2021/12/19 05:49:06;;;;;;;17.02;13.68;;;;;;;;;;1803771;78;21025;-59
2021/12/19 05:51:35;;;;;;;19.90;15.03;;;;;;;;;;1802381;78;21524;-59
2021/12/19 05:54:01;;;;;;;19.50;14.78;;;;;;;;;;1787709;78;21027;-59
2021/12/19 05:56:27;;;;;;;16.48;14.03;;;;;;;;;;1798607;78;20866;-59
2021/12/19 05:58:54;;;;;;;21.20;14.25;;;;;;;;;;1804950;78;21413;-59
2021/12/19 06:01:21;;;;;;;19.12;15.13;;;;;;;;;;1803966;78;20965;-59
2021/12/19 06:03:47;;;;;;;17.37;14.03;;;;;;;;;;1807209;78;21124;-59
2021/12/19 06:06:14;;;;;;;19.23;12.80;;;;;;;;;;1810349;78;21485;-59
2021/12/19 06:08:40;;;;;;;18.17;13.65;;;;;;;;;;1810077;78;20926;-59
2021/12/19 06:11:06;;;;;;;17.85;11.65;;;;;;;;;;1803162;78;21515;-59
2021/12/19 06:13:33;;;;;;;16.48;11.70;;;;;;;;;;1807847;78;20941;-59
2021/12/19 06:15:59;;;;;;;15.18;12.25;;;;;;;;;;1796205;78;21056;-60
2021/12/19 06:18:27;;;;;;;15.65;12.03;;;;;;;;;;1809071;78;20866;-58
2021/12/19 06:20:55;;;;;;;14.47;10.38;;;;;;;;;;1809192;78;20981;-60
2021/12/19 06:23:22;;;;;;;15.35;11.18;;;;;;;;;;1806258;78;21511;-59
2021/12/19 06:25:48;;;;;;;15.08;11.63;;;;;;;;;;1801667;78;20890;-58
2021/12/19 06:28:17;;;;;;;13.85;10.40;;;;;;;;;;1803209;78;21471;-58
2021/12/19 06:30:44;;;;;;;14.15;11.05;;;;;;;;;;1797544;78;21161;-60
2021/12/19 06:33:11;;;;;;;13.65;11.35;;;;;;;;;;1793424;78;20902;-59
2021/12/19 06:35:37;;;;;;;13.68;11.05;;;;;;;;;;1799850;78;20894;-59
2021/12/19 06:38:04;;;;;;;12.18;9.78;;;;;;;;;;1810093;78;20989;-59
2021/12/19 06:40:30;;;;;;;11.08;9.38;;;;;;;;;;1807274;78;21408;-60
2021/12/19 06:42:56;;;;;;;11.22;9.18;;;;;;;;;;1799528;78;21194;-61
2021/12/19 06:45:22;;;;;;;9.80;8.80;;;;;;;;;;1797751;78;20926;-60
2021/12/19 06:47:48;;;;;;;10.88;8.90;;;;;;;;;;1797947;78;21089;-58
2021/12/19 06:50:15;;;;;;;9.88;8.78;;;;;;;;;;1797680;78;20882;-59
2021/12/19 06:52:41;;;;;;;8.53;7.62;;;;;;;;;;1761942;80;21259;-60
2021/12/19 06:55:08;;;;;;;8.35;6.87;;;;;;;;;;1811134;78;21127;-60
2021/12/19 06:57:34;;;;;;;8.15;7.12;;;;;;;;;;1796822;78;21515;-60
2021/12/19 07:00:01;;;;;;;6.85;6.20;;;;;;;;;;1783313;78;21306;-61
2021/12/19 07:02:27;;;;;;;6.90;6.17;;;;;;;;;;1767666;80;21117;-60
2021/12/19 07:04:53;;;;;;;6.35;5.78;;;;;;;;;;1742709;81;21020;-61
2021/12/19 07:07:21;;;;;;;6.08;5.53;;;;;;;;;;1810226;78;21840;-60
2021/12/19 07:09:48;;;;;;;6.75;5.87;;;;;;;;;;1811284;78;20882;-59
2021/12/19 07:12:14;;;;;;;6.65;5.83;;;;;;;;;;1799224;79;21468;-60
2021/12/19 07:14:43;;;;;;;7.00;6.05;;;;;;;;;;1798551;79;20918;-59
2021/12/19 07:17:11;;;;;;;7.28;5.65;;;;;;;;;;1805695;79;20906;-62
2021/12/19 07:19:37;;;;;;;6.40;5.80;;;;;;;;;;1808214;78;21086;-59
2021/12/19 07:22:03;;;;;;;7.15;5.85;;;;;;;;;;1804048;79;20966;-60
2021/12/19 07:24:29;;;;;;;5.97;5.05;;;;;;;;;;1795845;79;20922;-60
2021/12/19 07:26:56;;;;;;;4.85;4.35;;;;;;;;;;1799585;78;21029;-60
2021/12/19 07:29:22;;;;;;;5.53;5.03;;;;;;;;;;1810172;78;20974;-61
2021/12/19 07:31:48;;;;;;;4.75;4.25;;;;;;;;;;1800430;78;21862;-60
2021/12/19 07:34:14;;;;;;;4.35;3.87;;;;;;;;;;1798879;78;21017;-59
2021/12/19 07:36:47;;;;;;;4.28;3.87;;;;;;;;;;1759083;80;20973;-60
2021/12/19 07:39:23;;;;;;;3.52;3.22;;;;;;;;;;1758108;80;21077;-59
2021/12/19 07:41:37;;;;;;;3.35;3.05;;;;;;;;;;1758029;81;22259;-59
2021/12/19 07:44:03;;;;;;;3.20;2.83;;;;;;;;;;1727202;81;21130;-60
2021/12/19 07:46:29;;;;;;;2.75;2.55;;;;;;;;;;1757457;80;20939;-60
2021/12/19 07:48:55;;;;;;;3.42;3.12;;;;;;;;;;1759498;80;21537;-60
2021/12/19 07:51:21;;;;;;;3.17;2.83;;;;;;;;;;1759069;80;20975;-60
2021/12/19 07:53:48;;;;;;;3.70;2.87;;;;;;;;;;1760497;80;21391;-60
2021/12/19 07:56:14;;;;;;;3.47;3.17;;;;;;;;;;1758953;81;21155;-60
2021/12/19 07:58:40;;;;;;;2.90;2.70;;;;;;;;;;1748475;82;20990;-61
2021/12/19 08:01:07;;;;;;;2.50;2.30;;;;;;;;;;1728768;81;21608;-60
2021/12/19 08:03:33;;;;;;;2.50;2.30;;;;;;;;;;1726354;81;20985;-60
2021/12/19 08:06:00;;;;;;;2.30;2.10;;;;;;;;;;1721987;81;21025;-59
2021/12/19 08:08:28;;;;;;;2.25;1.90;;;;;;;;;;1756733;80;21802;-60
2021/12/19 08:13:39;;;;;;;2.22;2.02;;;;;;;;;;1797789;78;20939;-61
2021/12/19 08:16:07;;;;;;;2.17;1.90;;;;;;;;;;1766731;80;20895;-59
2021/12/19 08:18:34;;;;;;;2.30;2.10;;;;;;;;;;1811004;78;20973;-61
2021/12/19 08:21:00;;;;;;;2.35;2.00;;;;;;;;;;1811364;78;21130;-61
2021/12/19 08:23:27;;;;;;;2.08;1.87;;;;;;;;;;1807377;78;20981;-61
2021/12/19 08:25:53;;;;;;;1.70;1.60;;;;;;;;;;1804671;78;20977;-59
2021/12/19 08:28:19;;;;;;;2.33;1.80;;;;;;;;;;1815372;78;21409;-59
2021/12/19 08:30:46;;;;;;;1.70;1.60;;;;;;;;;;1802657;78;20878;-59
2021/12/19 08:33:12;;;;;;;1.50;1.40;;;;;;;;;;1803937;78;21150;-59
2021/12/19 08:35:39;;;;;;;1.50;1.40;;;;;;;;;;1809671;78;20871;-60
2021/12/19 08:38:05;;;;;;;1.32;1.02;;;;;;;;;;1813183;78;20918;-61
2021/12/19 08:40:32;;;;;;;1.30;1.00;;;;;;;;;;1815335;78;20957;-60
2021/12/19 08:42:58;;;;;;;1.40;1.07;;;;;;;;;;1804213;78;21045;-60
2021/12/19 08:45:26;;;;;;;1.30;1.20;;;;;;;;;;1804654;78;21225;-61
2021/12/19 08:47:52;;;;;;;1.52;1.42;;;;;;;;;;1806639;78;20998;-60
2021/12/19 08:50:19;;;;;;;1.70;1.60;;;;;;;;;;1803782;78;20926;-61
2021/12/19 08:52:45;;;;;;;1.92;1.72;;;;;;;;;;1783500;80;20879;-60
2021/12/19 08:55:11;;;;;;;1.72;1.25;;;;;;;;;;1806368;78;20969;-61
2021/12/19 08:57:38;;;;;;;1.40;1.30;;;;;;;;;;1761732;80;21200;-61
2021/12/19 09:00:13;;;;;;;3.52;1.62;;;;;;;;;;1816936;78;21001;-63
2021/12/19 09:02:45;;;;;;;;;;;;;;;;;;1821776;78;21578;-61
2021/12/19 09:05:11;;;;;;;1.42;1.22;;;;;;;;;;1807714;78;20135;-63
2021/12/19 09:07:38;;;;;;;1.17;1.07;;;;;;;;;;1763424;80;21453;-60
2021/12/19 09:10:06;;;;;;;1.52;1.22;;;;;;;;;;1806677;78;20886;-59
2021/12/19 09:12:34;;;;;;;1.25;1.00;;;;;;;;;;1807606;79;20954;-60
2021/12/19 09:15:01;;;;;;;1.60;1.17;;;;;;;;;;1748119;80;20907;-61
2021/12/19 09:17:27;;;;;;;1.47;1.20;;;;;;;;;;1732220;81;20925;-61
2021/12/19 09:19:54;;;;;;;1.30;1.22;;;;;;;;;;1733852;81;20934;-61
2021/12/19 09:22:20;;;;;;;1.87;1.30;;;;;;;;;;1734519;81;21143;-65
2021/12/19 09:24:47;;;;;;;1.55;1.45;;;;;;;;;;1762496;80;20989;-59
2021/12/19 09:27:13;;;;;;;1.80;1.32;;;;;;;;;;1738245;82;20988;-61
2021/12/19 09:29:39;;;;;;;1.50;1.12;;;;;;;;;;1736128;82;20990;-62
2021/12/19 09:32:06;;;;;;;1.30;1.20;;;;;;;;;;1723995;81;21755;-62
2021/12/19 09:34:34;;;;;;;2.10;1.52;;;;;;;;;;1761510;80;21418;-62
2021/12/19 09:37:01;;;;;;;1.22;1.12;;;;;;;;;;1758142;80;20934;-59
2021/12/19 09:39:27;;;;;;;1.50;1.40;;;;;;;;;;1759506;81;20878;-59
2021/12/19 09:41:56;;;;;;;1.35;1.17;;;;;;;;;;1729917;82;21066;-60
2021/12/19 09:44:23;;;;;;;1.60;1.22;;;;;;;;;;1729974;82;20981;-60
2021/12/19 09:46:49;;;;;;;1.98;1.05;;;;;;;;;;1759919;80;21143;-60
2021/12/19 09:49:17;;;;;;;1.37;1.02;;;;;;;;;;1734662;81;20973;-60
2021/12/19 09:51:43;;;;;;;2.02;1.60;;;;;;;;;;1725312;81;20991;-60
2021/12/19 09:54:11;;;;;;;1.32;1.22;;;;;;;;;;1732489;81;20979;-59
2021/12/19 09:56:38;;;;;;;2.55;2.35;;;;;;;;;;1729914;81;21490;-60
2021/12/19 09:59:10;;;;;;;2.08;1.87;;;;;;;;;;1762264;80;21100;-60
2021/12/19 10:01:36;;;;;;;1.65;1.50;;;;;;;;;;1760250;81;21052;-62
2021/12/19 10:04:04;;;;;;;2.00;1.80;;;;;;;;;;1725811;81;20918;-61
2021/12/19 10:06:30;;;;;;;2.12;1.50;;;;;;;;;;1733968;81;20948;-62
2021/12/19 10:09:15;;;;;;;2.50;1.60;;;;;;;;;;1765594;80;21012;-61
2021/12/19 10:14:30;;;;;;;2.45;2.02;;;;;;;;;;1798412;78;21233;-62
2021/12/19 10:16:58;;;;;;;1.55;1.35;;;;;;;;;;1807055;78;20918;-62
2021/12/19 10:19:50;;;;;;;1.40;1.20;;;;;;;;;;1806096;78;21439;-63
2021/12/19 10:22:26;;;;;;;1.50;1.30;;;;;;;;;;1812312;78;20898;-64
2021/12/19 10:24:52;;;;;;;;;;;;;;;;;;1770643;80;21775;-65
2021/12/19 10:27:36;;;;;;;2.42;1.70;;;;;;;;;;1775586;80;21460;-65
2021/12/19 10:30:12;;;;;;;2.85;2.47;;;;;;;;;;1743195;80;20911;-66
2021/12/19 10:32:53;;;;;;;1.90;1.50;;;;;;;;;;1754435;80;21085;-63
2021/12/19 10:35:24;;;;;;;1.75;1.40;;;;;;;;;;1755761;80;21440;-64
2021/12/19 10:37:50;;;;;;;1.37;1.27;;;;;;;;;;1759069;81;21718;-65
2021/12/19 10:40:16;;;;;;;1.95;1.82;;;;;;;;;;1762584;80;20934;-62
2021/12/19 10:42:57;;;;;;;1.80;1.70;;;;;;;;;;1758575;80;21556;-64
2021/12/19 10:45:36;;;;;;;2.05;1.62;;;;;;;;;;1802862;78;21449;-67
2021/12/19 10:48:08;;;;;;;1.37;1.27;;;;;;;;;;1765759;80;20894;-66
2021/12/19 10:51:02;;;;;;;1.05;0.80;;;;;;;;;;1803617;78;21146;-64
2021/12/19 10:53:40;;;;;;;1.55;1.30;;;;;;;;;;1798123;78;20902;-65
2021/12/19 10:56:08;;;;;;;0.90;0.90;;;;;;;;;;1761494;80;20906;-63
2021/12/19 10:58:37;;;;;;;1.15;1.00;;;;;;;;;;1809577;78;20945;-62
2021/12/19 11:01:17;;;;;;;0.95;0.88;;;;;;;;;;1799670;78;20973;-65
2021/12/19 11:03:47;;;;;;;1.87;1.20;;;;;;;;;;1764327;80;21102;-59
2021/12/19 11:06:29;;;;;;;1.60;1.50;;;;;;;;;;1809641;78;21518;-61
2021/12/19 11:08:55;;;;;;;1.57;1.45;;;;;;;;;;1778184;80;22316;-63
2021/12/19 11:11:49;;;;;;;2.70;1.90;;;;;;;;;;1799297;78;20994;-64
2021/12/19 11:14:27;;;;;;;1.35;1.25;;;;;;;;;;1764219;80;21075;-61
2021/12/19 11:16:58;;;;;;;1.60;0.90;;;;;;;;;;1726661;82;21112;-60
2021/12/19 11:19:25;;;;;;;1.60;1.50;;;;;;;;;;1753389;80;20925;-61
2021/12/19 11:21:51;;;;;;;1.22;1.12;;;;;;;;;;1729396;82;21005;-62
2021/12/19 11:24:19;;;;;;;1.27;1.17;;;;;;;;;;1751686;80;21435;-63
2021/12/19 11:26:48;;;;;;;1.90;1.05;;;;;;;;;;1728399;82;21607;-61
2021/12/19 11:29:14;;;;;;;1.12;1.02;;;;;;;;;;1765052;80;21151;-62
2021/12/19 11:31:45;;;;;;;1.00;0.90;;;;;;;;;;1754913;80;20945;-64
2021/12/19 11:34:13;;;;;;;1.37;1.27;;;;;;;;;;1759938;80;21102;-62
2021/12/19 11:36:41;;;;;;;2.65;1.10;;;;;;;;;;1761693;80;21053;-63
2021/12/19 11:39:08;;;;;;;1.35;1.25;;;;;;;;;;1767886;80;21035;-63
2021/12/19 11:41:34;;;;;;;2.00;1.15;;;;;;;;;;1762962;81;21139;-63
2021/12/19 11:44:04;;;;;;;1.35;1.15;;;;;;;;;;1719864;83;21397;-65
2021/12/19 11:46:52;;;;;;;1.80;1.62;;;;;;;;;;1757636;80;20911;-62
2021/12/19 11:49:24;;;;;;;1.85;1.30;;;;;;;;;;1753624;81;21006;-63
2021/12/19 11:51:48;;;;;;;1.30;1.20;;;;;;;;;;1731993;81;21527;-63
2021/12/19 11:54:17;;;;;;;1.57;1.30;;;;;;;;;;1731902;81;21829;-65
2021/12/19 11:57:06;;;;;;;1.17;1.02;;;;;;;;;;1761456;80;20950;-65
2021/12/19 11:59:33;;;;;;;2.12;1.17;;;;;;;;;;1763347;80;20939;-60
2021/12/19 12:02:22;;;;;;;1.32;1.22;;;;;;;;;;1763897;80;21496;-63
2021/12/19 12:05:15;;;;;;;1.42;1.00;;;;;;;;;;1731290;81;20908;-63
2021/12/19 12:08:07;;;;;;;1.10;1.00;;;;;;;;;;1731256;82;21780;-64
2021/12/19 12:10:58;;;;;;;2.20;1.42;;;;;;;;;;1724977;82;37515;-66
2021/12/19 12:13:42;;;;;;;1.35;1.10;;;;;;;;;;1799336;78;21508;-63
2021/12/19 12:16:33;;;;;;;1.10;1.00;;;;;;;;;;1795140;78;20942;-63
2021/12/19 12:19:01;;;;;;;1.00;0.90;;;;;;;;;;1782276;80;20899;-64
2021/12/19 12:21:32;;;;;;;0.93;0.90;;;;;;;;;;1804759;78;21162;-63
2021/12/19 12:24:02;;;;;;;1.32;1.10;;;;;;;;;;1770458;80;20918;-63
2021/12/19 12:26:41;;;;;;;6.37;5.30;;;;;;;;;;1805683;78;20887;-62
2021/12/19 12:29:00;;;;;;;3.37;2.80;;;;;;;;;;1787799;78;20981;-64
2021/12/19 12:31:27;;;;;;;1.67;1.52;;;;;;;;;;1798990;78;20882;-62
2021/12/19 12:33:55;;;;;;;1.50;1.37;;;;;;;;;;1806813;78;20993;-63
2021/12/19 12:36:21;;;;;;;1.32;1.07;;;;;;;;;;1805582;78;20887;-61
2021/12/19 12:38:50;;;;;;;1.55;1.40;;;;;;;;;;1814274;78;22344;-61
2021/12/19 12:41:28;;;;;;;1.20;1.10;;;;;;;;;;1750525;80;20891;-63
2021/12/19 12:43:55;;;;;;;1.25;1.00;;;;;;;;;;1802207;78;20891;-62
2021/12/19 12:46:23;;;;;;;1.20;0.98;;;;;;;;;;1810957;78;21915;-62
2021/12/19 12:48:53;;;;;;;2.08;1.00;;;;;;;;;;1783591;80;21499;-60
2021/12/19 12:51:31;;;;;;;2.83;1.30;;;;;;;;;;1808688;78;20934;-63
2021/12/19 12:53:59;;;;;;;1.57;0.98;;;;;;;;;;1802325;78;20934;-62
2021/12/19 12:56:34;;;;;;;1.30;1.20;;;;;;;;;;1812423;78;20974;-62
2021/12/19 12:58:55;;;;;;;1.35;1.25;;;;;;;;;;1809077;78;21156;-62
2021/12/19 13:01:27;;;;;;;1.30;1.10;;;;;;;;;;1764908;80;21511;-61
2021/12/19 13:03:58;;;;;;;2.22;1.20;;;;;;;;;;1808529;78;21118;-65
2021/12/19 13:06:57;;;;;;;1.95;1.40;;;;;;;;;;1806304;78;20965;-63
2021/12/19 13:09:26;;;;;;;1.75;1.32;;;;;;;;;;1807893;78;21244;-62
2021/12/19 13:11:58;;;;;;;1.00;0.90;;;;;;;;;;1809593;78;21145;-60
2021/12/19 13:14:27;;;;;;;1.92;1.22;;;;;;;;;;1803753;78;21445;-61
2021/12/19 13:17:09;;;;;;;1.65;1.17;;;;;;;;;;1801208;78;21495;-62
2021/12/19 13:19:38;;;;;;;1.98;1.77;;;;;;;;;;1808179;78;20894;-63
2021/12/19 13:22:06;;;;;;;1.20;1.10;;;;;;;;;;1797959;78;20965;-62
2021/12/19 13:24:35;;;;;;;4.78;1.30;;;;;;;;;;1765232;79;21168;-60
2021/12/19 13:27:10;;;;;;;1.02;1.00;;;;;;;;;;1796150;78;20931;-60
2021/12/19 13:29:37;;;;;;;1.35;1.25;;;;;;;;;;1809513;78;20981;-60
2021/12/19 13:32:21;;;;;;;1.45;1.30;;;;;;;;;;1803622;78;21010;-60
2021/12/19 13:34:47;;;;;;;1.65;1.45;;;;;;;;;;1799838;78;21008;-60
2021/12/19 13:37:13;;;;;;;1.50;1.37;;;;;;;;;;1800266;78;21772;-59
2021/12/19 13:39:42;;;;;;;1.10;1.00;;;;;;;;;;1800648;78;21017;-59
2021/12/19 13:42:09;;;;;;;1.37;0.80;;;;;;;;;;1799831;78;21340;-60
2021/12/19 13:44:36;;;;;;;0.82;0.80;;;;;;;;;;1796520;78;21080;-60
2021/12/19 13:47:23;;;;;;;1.77;0.98;;;;;;;;;;1802189;78;21046;-61
2021/12/19 13:49:49;;;;;;;0.85;0.60;;;;;;;;;;1768833;79;23267;-61
2021/12/19 13:52:15;;;;;;;2.15;1.25;;;;;;;;;;1798397;78;20914;-62
2021/12/19 13:54:41;;;;;;;1.32;1.20;;;;;;;;;;1775242;80;21355;-61
2021/12/19 13:57:17;;;;;;;1.50;1.15;;;;;;;;;;1802766;78;20994;-61
2021/12/19 13:59:43;;;;;;;1.10;0.98;;;;;;;;;;1797320;78;20923;-59
2021/12/19 14:02:11;;;;;;;1.40;0.85;;;;;;;;;;1809308;78;21135;-60
2021/12/19 14:04:37;;;;;;;2.17;0.90;;;;;;;;;;1813210;78;20843;-60
2021/12/19 14:07:10;;;;;;;2.50;1.00;;;;;;;;;;1798460;78;20989;-60
2021/12/19 14:09:38;;;;;;;1.27;0.72;;;;;;;;;;1774157;80;20950;-60
2021/12/19 14:12:23;;;;;;;0.95;0.90;;;;;;;;;;1797390;78;21457;-60
2021/12/19 14:14:42;;;;;;;1.75;1.22;;;;;;;;;;1771564;80;21099;-59
2021/12/19 14:17:10;;;;;;;1.17;1.07;;;;;;;;;;1808432;78;21016;-60
2021/12/19 14:19:43;;;;;;;1.55;1.10;;;;;;;;;;1809618;78;21555;-61
2021/12/19 14:22:11;;;;;;;1.67;1.32;;;;;;;;;;1803445;78;20986;-62
2021/12/19 14:24:55;;;;;;;1.10;1.00;;;;;;;;;;1800591;78;21043;-60
2021/12/19 14:27:40;;;;;;;1.15;1.05;;;;;;;;;;1753081;80;21161;-62
2021/12/19 14:30:09;;;;;;;1.83;1.30;;;;;;;;;;1803367;78;21086;-61
2021/12/19 14:32:47;;;;;;;1.57;1.12;;;;;;;;;;1801369;78;21767;-61
2021/12/19 14:35:18;;;;;;;2.05;1.62;;;;;;;;;;1802658;78;20997;-61
2021/12/19 14:37:46;;;;;;;1.98;1.50;;;;;;;;;;1807198;78;20969;-62
2021/12/19 14:40:24;;;;;;;2.12;1.70;;;;;;;;;;1811040;78;21845;-60
2021/12/19 14:43:06;;;;;;;1.47;1.25;;;;;;;;;;1806975;78;20847;-60
2021/12/19 14:45:36;;;;;;;2.37;2.05;;;;;;;;;;1795385;78;21500;-62
2021/12/19 14:48:07;;;;;;;2.37;2.00;;;;;;;;;;1790572;78;20973;-61
2021/12/19 14:50:36;;;;;;;2.87;2.58;;;;;;;;;;1807420;78;20981;-61
2021/12/19 14:53:08;;;;;;;6.25;3.85;;;;;;;;;;1705020;80;21122;-60
2021/12/19 14:55:37;;;;;;;9.48;4.58;;;;;;;;;;1800144;78;20926;-61
2021/12/19 14:58:03;;;;;;;7.78;4.03;;;;;;;;;;1801659;78;20898;-61
2021/12/19 15:00:31;;;;;;;5.58;3.10;;;;;;;;;;1801108;78;21002;-61
2021/12/19 15:02:58;;;;;;;4.87;2.95;;;;;;;;;;1805439;78;20985;-61
2021/12/19 15:05:24;;;;;;;3.50;1.98;;;;;;;;;;1767309;79;21908;-61
2021/12/19 15:07:50;;;;;;;2.27;1.65;;;;;;;;;;1801777;78;21016;-61
2021/12/19 15:10:18;;;;;;;2.47;1.25;;;;;;;;;;1795037;78;21413;-60
2021/12/19 15:12:45;;;;;;;3.02;1.92;;;;;;;;;;1766563;80;21464;-60
2021/12/19 15:15:12;;;;;;;2.45;1.98;;;;;;;;;;1763824;80;20981;-60
2021/12/19 15:17:38;;;;;;;4.42;2.50;;;;;;;;;;1771587;80;21609;-60
2021/12/19 15:20:06;;;;;;;6.53;3.30;;;;;;;;;;1729687;81;20938;-60
2021/12/19 15:22:33;;;;;;;5.70;3.90;;;;;;;;;;1763670;80;21536;-60
2021/12/19 15:24:59;;;;;;;5.55;3.50;;;;;;;;;;1765400;80;20993;-60
2021/12/19 15:27:25;;;;;;;4.55;2.12;;;;;;;;;;1759138;80;22327;-62
2021/12/19 15:29:51;;;;;;;5.22;3.10;;;;;;;;;;1771882;80;21161;-61
2021/12/19 15:32:17;;;;;;;3.17;1.85;;;;;;;;;;1763343;80;20903;-61
2021/12/19 15:34:44;;;;;;;2.25;1.47;;;;;;;;;;1732430;81;21504;-61
2021/12/19 15:37:10;;;;;;;2.35;1.57;;;;;;;;;;1733734;82;20905;-61
2021/12/19 15:39:36;;;;;;;2.85;1.67;;;;;;;;;;1736070;81;21551;-61
2021/12/19 15:42:03;;;;;;;1.82;1.60;;;;;;;;;;1730336;82;21176;-61
2021/12/19 15:44:29;;;;;;;2.33;1.30;;;;;;;;;;1763042;80;20928;-61
2021/12/19 15:46:58;;;;;;;2.50;1.72;;;;;;;;;;1758463;80;21527;-61
2021/12/19 15:49:24;;;;;;;3.33;1.95;;;;;;;;;;1736835;81;21037;-61
2021/12/19 15:51:51;;;;;;;3.08;1.98;;;;;;;;;;1763581;80;21426;-59
2021/12/19 15:54:17;;;;;;;3.15;1.72;;;;;;;;;;1759810;80;21170;-60
2021/12/19 15:56:44;;;;;;;2.15;1.80;;;;;;;;;;1737226;82;21565;-60
2021/12/19 15:59:10;;;;;;;3.55;2.40;;;;;;;;;;1742627;82;21037;-61
2021/12/19 16:01:37;;;;;;;1.90;1.70;;;;;;;;;;1762188;80;21021;-60
2021/12/19 16:04:03;;;;;;;3.27;2.15;;;;;;;;;;1761276;80;20979;-61
2021/12/19 16:06:29;;;;;;;2.22;1.67;;;;;;;;;;1767736;80;21138;-61
2021/12/19 16:08:56;;;;;;;2.60;1.67;;;;;;;;;;1733845;82;20944;-61